createdAt,value
2022-09-22T00:01:36.169Z,1.73
2022-09-22T00:04:07.331Z,1.70
2022-09-22T00:06:39.543Z,1.45
2022-09-22T00:09:09.903Z,1.73
2022-09-22T00:11:40.374Z,1.15
2022-09-22T00:14:11.278Z,1.90
2022-09-22T00:16:42.119Z,1.17
2022-09-22T00:19:12.658Z,1.38
2022-09-22T00:21:42.290Z,1.30
2022-09-22T00:24:11.227Z,1.60
2022-09-22T00:26:40.086Z,1.30
2022-09-22T00:29:09.840Z,1.60
2022-09-22T00:31:39.224Z,1.20
2022-09-22T00:34:08.167Z,1.23
2022-09-22T00:36:36.600Z,1.40
2022-09-22T00:39:06.299Z,1.42
2022-09-22T00:41:37.352Z,1.15
2022-09-22T00:44:40.029Z,1.55
2022-09-22T00:47:18.759Z,1.48
2022-09-22T00:49:51.874Z,1.33
2022-09-22T00:52:24.109Z,1.60
2022-09-22T00:54:57.564Z,1.48
2022-09-22T00:57:28.032Z,1.30
2022-09-22T00:59:56.748Z,1.50
2022-09-22T01:02:25.985Z,1.77
2022-09-22T01:04:55.238Z,2.63
2022-09-22T01:07:26.142Z,1.55
2022-09-22T01:09:56.340Z,1.50
2022-09-22T01:12:25.896Z,1.52
2022-09-22T01:15:21.283Z,1.70
2022-09-22T01:18:03.534Z,1.58
2022-09-22T01:21:15.367Z,1.50
2022-09-22T01:24:13.057Z,1.23
2022-09-22T01:27:16.506Z,1.65
2022-09-22T01:30:23.157Z,1.40
2022-09-22T01:33:01.959Z,1.58
2022-09-22T01:35:33.868Z,1.27
2022-09-22T01:38:11.415Z,1.30
2022-09-22T01:40:44.218Z,1.60
2022-09-22T01:43:18.550Z,1.38
2022-09-22T01:45:49.398Z,1.30
2022-09-22T01:48:23.833Z,1.10
2022-09-22T01:50:56.769Z,1.50
2022-09-22T01:53:30.829Z,1.42
2022-09-22T01:58:34.386Z,1.60
2022-09-22T02:01:14.283Z,1.60
2022-09-22T02:03:48.010Z,1.40
2022-09-22T02:06:21.693Z,1.25
2022-09-22T02:08:54.493Z,1.30
2022-09-22T02:11:23.201Z,1.10
2022-09-22T02:13:51.657Z,1.45
2022-09-22T02:16:23.191Z,1.45
2022-09-22T02:18:55.169Z,1.38
2022-09-22T02:21:25.733Z,1.38
2022-09-22T02:23:53.819Z,1.50
2022-09-22T02:26:25.701Z,1.35
2022-09-22T02:28:56.813Z,1.40
2022-09-22T02:31:28.820Z,1.85
2022-09-22T02:33:59.015Z,1.73
2022-09-22T02:36:39.929Z,1.60
2022-09-22T02:39:11.152Z,1.92
2022-09-22T02:41:53.863Z,1.60
2022-09-22T02:44:26.563Z,1.58
2022-09-22T02:46:59.418Z,1.60
2022-09-22T02:49:29.793Z,1.60
2022-09-22T02:51:59.449Z,1.45
2022-09-22T02:54:27.578Z,1.40
2022-09-22T02:56:55.951Z,1.70
2022-09-22T02:59:24.075Z,1.95
2022-09-22T03:01:52.359Z,1.90
2022-09-22T03:04:20.667Z,1.80
2022-09-22T03:06:50.182Z,1.80
2022-09-22T03:09:18.315Z,1.90
2022-09-22T03:11:46.533Z,1.70
2022-09-22T03:14:14.722Z,2.20
2022-09-22T03:16:42.838Z,1.70
2022-09-22T03:19:11.172Z,1.70
2022-09-22T03:21:39.573Z,1.73
2022-09-22T03:24:09.459Z,1.67
2022-09-22T03:26:37.553Z,1.73
2022-09-22T03:29:06.094Z,1.77
2022-09-22T03:31:34.249Z,1.48
2022-09-22T03:34:02.622Z,1.67
2022-09-22T03:36:30.884Z,2.00
2022-09-22T03:39:00.262Z,1.90
2022-09-22T03:41:29.951Z,2.30
2022-09-22T03:43:58.609Z,1.67
2022-09-22T03:46:26.967Z,2.10
2022-09-22T03:48:55.274Z,1.80
2022-09-22T03:51:23.300Z,2.10
2022-09-22T03:53:51.351Z,1.92
2022-09-22T03:56:19.488Z,1.80
2022-09-22T03:58:49.987Z,2.00
2022-09-22T04:01:18.194Z,2.10
2022-09-22T04:03:46.699Z,2.13
2022-09-22T04:06:14.724Z,2.05
2022-09-22T04:08:42.883Z,2.40
2022-09-22T04:11:10.925Z,2.35
2022-09-22T04:13:44.015Z,2.80
2022-09-22T04:16:17.264Z,2.78
2022-09-22T04:18:45.315Z,2.42
2022-09-22T04:21:13.803Z,2.38
2022-09-22T04:23:42.135Z,2.70
2022-09-22T04:26:10.372Z,2.40
2022-09-22T04:28:38.546Z,2.40
2022-09-22T04:31:07.110Z,3.00
2022-09-22T04:33:36.845Z,2.58
2022-09-22T04:36:05.106Z,2.13
2022-09-22T04:38:33.541Z,2.42
2022-09-22T04:41:02.281Z,2.70
2022-09-22T04:43:30.318Z,2.30
2022-09-22T04:45:58.476Z,2.45
2022-09-22T04:48:26.736Z,2.38
2022-09-22T04:50:56.274Z,2.60
2022-09-22T04:53:24.510Z,2.60
2022-09-22T04:55:52.628Z,2.50
2022-09-22T04:58:20.743Z,2.63
2022-09-22T05:00:49.028Z,3.00
2022-09-22T05:03:21.919Z,2.63
2022-09-22T05:05:50.578Z,2.95
2022-09-22T05:08:19.996Z,2.53
2022-09-22T05:10:48.213Z,2.70
2022-09-22T05:13:16.718Z,3.17
2022-09-22T05:15:44.818Z,2.72
2022-09-22T05:18:12.997Z,3.70
2022-09-22T05:20:41.539Z,2.95
2022-09-22T05:23:09.760Z,3.63
2022-09-22T05:25:39.391Z,3.97
2022-09-22T05:28:07.454Z,3.45
2022-09-22T05:30:35.535Z,2.88
2022-09-22T05:33:03.716Z,3.45
2022-09-22T05:35:36.582Z,3.35
2022-09-22T05:38:05.090Z,2.75
2022-09-22T05:40:33.364Z,3.05
2022-09-22T05:43:03.012Z,2.90
2022-09-22T05:45:31.612Z,2.90
2022-09-22T05:47:59.818Z,3.40
2022-09-22T05:50:30.205Z,3.63
2022-09-22T05:53:05.973Z,2.97
2022-09-22T05:55:34.309Z,3.60
2022-09-22T05:58:04.725Z,3.70
2022-09-22T06:00:33.380Z,3.55
2022-09-22T06:03:01.716Z,3.67
2022-09-22T06:05:29.858Z,3.53
2022-09-22T06:08:01.533Z,3.80
2022-09-22T06:10:30.334Z,3.58
2022-09-22T06:12:59.947Z,3.28
2022-09-22T06:15:29.590Z,3.92
2022-09-22T06:17:58.135Z,3.75
2022-09-22T06:20:26.386Z,3.33
2022-09-22T06:22:55.045Z,4.30
2022-09-22T06:25:23.761Z,4.00
2022-09-22T06:28:01.912Z,4.07
2022-09-22T06:30:32.016Z,3.92
2022-09-22T06:33:00.212Z,4.20
2022-09-22T06:35:31.349Z,4.80
2022-09-22T06:38:00.278Z,4.25
2022-09-22T06:40:30.451Z,4.22
2022-09-22T06:42:59.513Z,4.90
2022-09-22T06:45:28.026Z,4.50
2022-09-22T06:48:00.571Z,4.68
2022-09-22T06:50:31.171Z,4.38
2022-09-22T06:53:00.879Z,5.13
2022-09-22T06:55:30.206Z,5.60
2022-09-22T06:57:59.986Z,5.40
2022-09-22T07:00:32.902Z,6.13
2022-09-22T07:03:09.163Z,5.50
2022-09-22T07:05:38.198Z,6.60
2022-09-22T07:08:08.110Z,6.57
2022-09-22T07:10:38.167Z,6.70
2022-09-22T07:13:06.574Z,7.32
2022-09-22T07:15:35.660Z,9.15
2022-09-22T07:18:04.533Z,8.55
2022-09-22T07:20:35.908Z,9.02
2022-09-22T07:23:04.080Z,10.45
2022-09-22T07:25:36.085Z,11.40
2022-09-22T07:28:06.161Z,11.02
2022-09-22T07:30:38.224Z,10.88
2022-09-22T07:33:06.283Z,11.23
2022-09-22T07:35:37.985Z,11.00
2022-09-22T07:38:06.132Z,11.35
2022-09-22T07:40:34.612Z,11.82
2022-09-22T07:43:02.628Z,10.13
2022-09-22T07:45:30.671Z,10.07
2022-09-22T07:48:16.368Z,10.63
2022-09-22T07:50:54.384Z,11.25
2022-09-22T07:53:22.533Z,10.57
2022-09-22T07:55:50.565Z,9.23
2022-09-22T07:58:18.709Z,9.20
2022-09-22T08:00:46.923Z,9.07
2022-09-22T08:03:16.378Z,9.73
2022-09-22T08:05:47.057Z,10.57
2022-09-22T08:08:15.283Z,8.77
2022-09-22T08:10:43.430Z,9.15
2022-09-22T08:13:11.448Z,9.50
2022-09-22T08:15:40.300Z,8.27
2022-09-22T08:18:08.415Z,8.38
2022-09-22T08:20:36.687Z,7.72
2022-09-22T08:23:06.198Z,7.57
2022-09-22T08:25:34.819Z,7.85
2022-09-22T08:28:03.214Z,7.78
2022-09-22T08:30:33.034Z,8.07
2022-09-22T08:33:01.777Z,7.60
2022-09-22T08:35:29.887Z,7.68
2022-09-22T08:37:58.060Z,7.85
2022-09-22T08:40:28.672Z,7.40
2022-09-22T08:42:57.481Z,7.25
2022-09-22T08:45:33.316Z,7.50
2022-09-22T08:48:24.450Z,7.68
2022-09-22T08:51:13.825Z,5.95
2022-09-22T08:53:47.746Z,6.15
2022-09-22T08:56:30.693Z,6.15
2022-09-22T08:59:04.945Z,6.00
2022-09-22T09:01:48.881Z,6.28
2022-09-22T09:04:54.515Z,6.28
2022-09-22T09:07:31.172Z,6.50
2022-09-22T09:10:07.121Z,5.30
2022-09-22T09:12:51.725Z,4.43
2022-09-22T09:15:45.679Z,4.10
2022-09-22T09:18:17.887Z,4.07
2022-09-22T09:20:48.221Z,3.42
2022-09-22T09:23:19.855Z,3.35
2022-09-22T09:25:50.822Z,3.00
2022-09-22T09:28:27.043Z,2.88
2022-09-22T09:31:02.468Z,3.15
2022-09-22T09:33:38.208Z,2.90
2022-09-22T09:36:13.459Z,2.88
2022-09-22T09:38:48.801Z,2.67
2022-09-22T09:41:20.685Z,2.58
2022-09-22T09:43:53.281Z,2.30
2022-09-22T09:46:34.566Z,2.63
2022-09-22T09:49:12.488Z,3.08
2022-09-22T09:51:43.879Z,2.47
2022-09-22T09:54:17.323Z,2.58
2022-09-22T09:57:07.600Z,2.88
2022-09-22T09:59:55.614Z,2.63
2022-09-22T10:02:28.589Z,3.30
2022-09-22T10:04:58.807Z,3.60
2022-09-22T10:07:29.272Z,3.33
2022-09-22T10:10:17.870Z,4.18
2022-09-22T10:12:47.360Z,4.35
2022-09-22T10:15:24.729Z,4.40
2022-09-22T10:17:53.248Z,3.58
2022-09-22T10:20:24.421Z,3.33
2022-09-22T10:22:52.706Z,3.92
2022-09-22T10:25:23.981Z,3.60
2022-09-22T10:28:05.785Z,3.58
2022-09-22T10:30:37.548Z,4.30
2022-09-22T10:33:23.636Z,3.20
2022-09-22T10:35:56.938Z,3.22
2022-09-22T10:38:29.367Z,2.77
2022-09-22T10:41:00.299Z,2.63
2022-09-22T10:43:38.370Z,2.60
2022-09-22T10:46:20.902Z,2.67
2022-09-22T10:48:53.275Z,3.05
2022-09-22T10:51:35.132Z,3.45
2022-09-22T10:54:35.920Z,3.05
2022-09-22T10:57:10.473Z,2.92
2022-09-22T11:00:04.098Z,2.38
2022-09-22T11:02:51.537Z,2.92
2022-09-22T11:06:01.708Z,3.10
2022-09-22T11:08:52.064Z,2.92
2022-09-22T11:11:45.788Z,2.92
2022-09-22T11:14:24.529Z,3.08
2022-09-22T11:17:07.283Z,3.25
2022-09-22T11:19:58.761Z,3.50
2022-09-22T11:22:43.084Z,3.92
2022-09-22T11:25:27.851Z,3.00
2022-09-22T11:28:09.312Z,3.35
2022-09-22T11:30:45.416Z,3.20
2022-09-22T11:33:58.235Z,3.40
2022-09-22T11:36:35.660Z,3.65
2022-09-22T11:39:20.594Z,3.15
2022-09-22T11:42:00.785Z,1.60
2022-09-22T11:44:36.334Z,2.50
2022-09-22T11:47:31.285Z,3.10
2022-09-22T11:52:58.366Z,3.50
2022-09-22T11:55:36.532Z,2.92
2022-09-22T11:58:10.722Z,2.83
2022-09-22T12:03:17.672Z,4.85
2022-09-22T12:05:52.739Z,3.63
2022-09-22T12:08:23.674Z,3.55
2022-09-22T12:10:52.894Z,4.25
2022-09-22T12:13:23.873Z,3.67
2022-09-22T12:16:02.584Z,4.15
2022-09-22T12:18:39.301Z,4.53
2022-09-22T12:21:24.065Z,4.55
2022-09-22T12:23:52.863Z,4.25
2022-09-22T12:26:28.556Z,3.80
2022-09-22T12:28:58.965Z,4.32
2022-09-22T12:31:36.027Z,4.82
2022-09-22T12:34:07.148Z,3.70
2022-09-22T12:36:39.343Z,3.75
2022-09-22T12:39:10.183Z,3.85
2022-09-22T12:41:48.646Z,3.22
2022-09-22T12:44:25.294Z,3.45
2022-09-22T12:46:58.527Z,3.53
2022-09-22T12:49:26.853Z,4.30
2022-09-22T12:51:56.516Z,3.47
2022-09-22T12:54:40.685Z,4.85
2022-09-22T12:57:28.976Z,3.92
2022-09-22T13:00:12.763Z,3.90
2022-09-22T13:02:46.061Z,3.75
2022-09-22T13:05:46.734Z,3.77
2022-09-22T13:08:47.830Z,3.97
2022-09-22T13:11:17.422Z,4.40
2022-09-22T13:13:45.539Z,4.53
2022-09-22T13:16:36.515Z,4.35
2022-09-22T13:19:10.185Z,4.22
2022-09-22T13:21:41.744Z,3.45
2022-09-22T13:24:26.620Z,3.08
2022-09-22T13:27:05.895Z,3.40
2022-09-22T13:29:34.472Z,3.30
2022-09-22T13:32:18.490Z,3.70
2022-09-22T13:34:47.107Z,2.72
2022-09-22T13:37:20.419Z,2.50
2022-09-22T13:39:51.705Z,2.70
2022-09-22T13:42:23.409Z,2.90
2022-09-22T13:45:01.537Z,2.78
2022-09-22T13:47:30.122Z,3.00
2022-09-22T13:50:04.169Z,2.63
2022-09-22T13:52:35.493Z,2.60
2022-09-22T13:55:09.641Z,2.58
2022-09-22T13:57:39.822Z,3.20
2022-09-22T14:00:10.361Z,3.08
2022-09-22T14:02:46.344Z,3.40
2022-09-22T14:05:19.831Z,3.42
2022-09-22T14:08:07.720Z,3.10
2022-09-22T14:10:50.031Z,3.38
2022-09-22T14:13:38.759Z,2.97
2022-09-22T14:16:23.776Z,3.20
2022-09-22T14:18:58.589Z,2.70
2022-09-22T14:21:26.802Z,3.08
2022-09-22T14:23:56.173Z,3.00
2022-09-22T14:26:33.700Z,2.63
2022-09-22T14:29:15.218Z,2.47
2022-09-22T14:31:46.769Z,2.47
2022-09-22T14:34:19.766Z,3.10
2022-09-22T14:36:52.285Z,2.55
2022-09-22T14:39:31.269Z,2.75
2022-09-22T14:42:09.063Z,2.80
2022-09-22T14:44:46.147Z,2.95
2022-09-22T14:47:25.731Z,2.38
2022-09-22T14:50:38.396Z,2.20
2022-09-22T14:53:12.290Z,2.33
2022-09-22T14:55:44.413Z,2.70
2022-09-22T14:58:18.245Z,2.65
2022-09-22T15:01:14.144Z,2.58
2022-09-22T15:03:45.370Z,2.88
2022-09-22T15:06:15.605Z,2.50
2022-09-22T15:08:48.994Z,2.88
2022-09-22T15:11:19.103Z,2.25
2022-09-22T15:13:50.997Z,2.35
2022-09-22T15:16:39.931Z,2.60
2022-09-22T15:19:12.050Z,2.92
2022-09-22T15:21:47.068Z,2.08
2022-09-22T15:24:21.238Z,2.40
2022-09-22T15:29:17.479Z,2.80
2022-09-22T15:31:47.152Z,2.97
2022-09-22T15:34:16.429Z,3.10
2022-09-22T15:36:47.959Z,2.70
2022-09-22T15:39:21.587Z,2.63
2022-09-22T15:41:49.814Z,2.45
2022-09-22T15:44:18.079Z,2.83
2022-09-22T15:46:51.421Z,2.50
2022-09-22T15:49:24.603Z,2.60
2022-09-22T15:51:53.237Z,2.60
2022-09-22T15:54:23.937Z,2.65
2022-09-22T15:56:55.667Z,2.70
2022-09-22T15:59:27.377Z,3.10
2022-09-22T16:01:57.526Z,3.00
2022-09-22T16:04:33.685Z,2.65
2022-09-22T16:07:05.500Z,2.58
2022-09-22T16:09:34.455Z,2.38
2022-09-22T16:12:21.524Z,2.70
2022-09-22T16:14:52.271Z,2.45
2022-09-22T16:17:24.114Z,2.20
2022-09-22T16:19:52.306Z,2.58
2022-09-22T16:22:20.559Z,2.72
2022-09-22T16:24:48.745Z,3.05
2022-09-22T16:27:16.846Z,2.92
2022-09-22T16:29:44.853Z,2.50
2022-09-22T16:32:12.939Z,3.05
2022-09-22T16:34:42.439Z,2.47
2022-09-22T16:37:10.637Z,2.58
2022-09-22T16:39:39.043Z,2.67
2022-09-22T16:42:07.418Z,2.80
2022-09-22T16:44:35.624Z,2.60
2022-09-22T16:47:04.236Z,2.47
2022-09-22T16:49:34.124Z,2.83
2022-09-22T16:52:03.641Z,2.63
2022-09-22T16:54:34.501Z,2.75
2022-09-22T16:57:02.570Z,2.80
2022-09-22T16:59:31.031Z,2.70
2022-09-22T17:01:59.571Z,3.10
2022-09-22T17:04:27.786Z,3.53
2022-09-22T17:06:55.986Z,3.28
2022-09-22T17:09:25.744Z,3.28
2022-09-22T17:11:53.913Z,3.05
2022-09-22T17:14:23.153Z,2.95
2022-09-22T17:16:52.965Z,3.83
2022-09-22T17:19:22.930Z,2.88
2022-09-22T17:21:55.328Z,2.95
2022-09-22T17:24:26.417Z,3.30
2022-09-22T17:26:56.089Z,2.90
2022-09-22T17:29:26.195Z,3.20
2022-09-22T17:31:57.340Z,3.05
2022-09-22T17:34:26.042Z,2.83
2022-09-22T17:36:55.623Z,2.90
2022-09-22T17:39:26.195Z,3.80
2022-09-22T17:41:55.116Z,3.35
2022-09-22T17:44:26.320Z,3.20
2022-09-22T17:47:12.080Z,3.10
2022-09-22T17:49:58.337Z,2.80
2022-09-22T17:52:44.111Z,3.00
2022-09-22T17:55:20.977Z,3.15
2022-09-22T17:57:50.431Z,2.83
2022-09-22T18:00:20.920Z,3.63
2022-09-22T18:02:50.538Z,3.15
2022-09-22T18:05:32.278Z,3.40
2022-09-22T18:08:00.766Z,3.38
2022-09-22T18:10:34.003Z,3.15
2022-09-22T18:13:03.357Z,3.47
2022-09-22T18:15:31.522Z,3.47
2022-09-22T18:17:59.643Z,3.60
2022-09-22T18:20:28.434Z,3.17
2022-09-22T18:23:00.400Z,3.55
2022-09-22T18:25:30.193Z,3.60
2022-09-22T18:27:58.295Z,3.55
2022-09-22T18:30:26.538Z,3.70
2022-09-22T18:32:55.001Z,3.67
2022-09-22T18:35:24.134Z,3.83
2022-09-22T18:37:52.512Z,3.55
2022-09-22T18:40:20.613Z,3.60
2022-09-22T18:42:50.210Z,3.88
2022-09-22T18:45:19.343Z,3.42
2022-09-22T18:47:47.609Z,4.05
2022-09-22T18:50:15.777Z,4.40
2022-09-22T18:52:46.943Z,4.13
2022-09-22T18:55:18.876Z,4.40
2022-09-22T18:57:48.496Z,5.50
2022-09-22T19:00:22.198Z,5.65
2022-09-22T19:02:50.635Z,5.35
2022-09-22T19:05:19.330Z,4.78
2022-09-22T19:07:48.448Z,5.53
2022-09-22T19:10:21.957Z,5.05
2022-09-22T19:12:50.916Z,5.72
2022-09-22T19:15:21.031Z,5.47
2022-09-22T19:17:50.276Z,6.32
2022-09-22T19:20:22.541Z,5.78
2022-09-22T19:22:52.563Z,6.45
2022-09-22T19:25:21.827Z,5.78
2022-09-22T19:27:50.402Z,6.55
2022-09-22T19:30:23.451Z,6.05
2022-09-22T19:32:52.888Z,6.97
2022-09-22T19:35:21.382Z,7.00
2022-09-22T19:37:52.013Z,6.70
2022-09-22T19:40:24.446Z,6.43
2022-09-22T19:42:53.280Z,6.97
2022-09-22T19:45:23.838Z,8.35
2022-09-22T19:47:52.472Z,9.10
2022-09-22T19:50:20.635Z,9.27
2022-09-22T19:52:48.985Z,10.70
2022-09-22T19:55:20.710Z,10.00
2022-09-22T19:57:50.031Z,10.80
2022-09-22T20:00:25.661Z,10.88
2022-09-22T20:02:58.643Z,11.10
2022-09-22T20:05:28.848Z,10.75
2022-09-22T20:07:57.192Z,9.15
2022-09-22T20:10:25.374Z,9.98
2022-09-22T20:12:53.717Z,9.02
2022-09-22T20:15:22.015Z,8.27
2022-09-22T20:17:50.189Z,7.20
2022-09-22T20:20:22.031Z,7.38
2022-09-22T20:22:55.235Z,7.25
2022-09-22T20:25:25.997Z,7.35
2022-09-22T20:27:54.791Z,6.32
2022-09-22T20:30:26.486Z,6.82
2022-09-22T20:32:54.675Z,7.18
2022-09-22T20:35:24.309Z,8.32
2022-09-22T20:37:53.125Z,12.13
2022-09-22T20:40:23.289Z,12.75
2022-09-22T20:42:54.233Z,12.68
2022-09-22T20:45:25.465Z,11.57
2022-09-22T20:47:54.244Z,9.95
2022-09-22T20:50:23.692Z,9.07
2022-09-22T20:52:51.793Z,7.95
2022-09-22T20:55:19.970Z,7.30
2022-09-22T20:57:48.179Z,7.32
2022-09-22T21:00:16.646Z,7.00
2022-09-22T21:02:45.671Z,7.32
2022-09-22T21:05:13.908Z,7.55
2022-09-22T21:07:43.630Z,7.22
2022-09-22T21:10:30.505Z,7.90
2022-09-22T21:13:00.496Z,7.65
2022-09-22T21:15:29.958Z,8.23
2022-09-22T21:17:58.580Z,8.07
2022-09-22T21:20:27.152Z,7.47
2022-09-22T21:22:56.845Z,7.40
2022-09-22T21:25:25.174Z,7.15
2022-09-22T21:27:53.410Z,7.75
2022-09-22T21:30:21.475Z,7.45
2022-09-22T21:32:49.671Z,7.20
2022-09-22T21:35:18.538Z,6.88
2022-09-22T21:37:46.681Z,7.68
2022-09-22T21:40:17.724Z,8.25
2022-09-22T21:42:45.919Z,7.80
2022-09-22T21:45:14.190Z,8.35
2022-09-22T21:47:42.267Z,6.97
2022-09-22T21:50:11.342Z,7.68
2022-09-22T21:52:39.538Z,7.93
2022-09-22T21:55:08.834Z,6.55
2022-09-22T21:57:38.868Z,6.70
2022-09-22T22:00:09.048Z,7.13
2022-09-22T22:02:57.929Z,7.28
2022-09-22T22:05:27.341Z,6.43
2022-09-22T22:07:55.424Z,7.15
2022-09-22T22:10:24.348Z,6.82
2022-09-22T22:12:55.573Z,6.30
2022-09-22T22:15:24.131Z,6.30
2022-09-22T22:17:52.298Z,7.28
2022-09-22T22:20:21.091Z,6.75
2022-09-22T22:22:49.077Z,6.07
2022-09-22T22:25:19.596Z,5.40
2022-09-22T22:27:47.727Z,5.50
2022-09-22T22:30:19.108Z,4.75
2022-09-22T22:32:47.528Z,4.60
2022-09-22T22:35:15.767Z,4.90
2022-09-22T22:37:46.041Z,5.57
2022-09-22T22:40:14.512Z,6.72
2022-09-22T22:42:42.928Z,6.20
2022-09-22T22:45:12.177Z,6.07
2022-09-22T22:47:41.689Z,6.40
2022-09-22T22:50:11.031Z,5.75
2022-09-22T22:52:42.300Z,5.75
2022-09-22T22:55:10.661Z,5.05
2022-09-22T22:57:38.788Z,5.00
2022-09-22T23:00:08.303Z,5.30
2022-09-22T23:02:36.405Z,4.50
2022-09-22T23:05:06.822Z,5.45
2022-09-22T23:07:34.969Z,4.63
2022-09-22T23:10:07.195Z,4.10
2022-09-22T23:12:36.101Z,4.18
2022-09-22T23:15:05.318Z,4.60
2022-09-22T23:17:33.469Z,4.22
2022-09-22T23:20:01.712Z,4.18
2022-09-22T23:22:31.154Z,4.60
2022-09-22T23:24:59.830Z,4.60
2022-09-22T23:27:28.565Z,4.63
2022-09-22T23:29:57.394Z,5.43
2022-09-22T23:32:25.647Z,4.70
2022-09-22T23:34:53.856Z,5.10
2022-09-22T23:37:25.148Z,4.53
2022-09-22T23:39:55.030Z,5.53
2022-09-22T23:42:24.445Z,4.75
2022-09-22T23:44:52.613Z,4.07
2022-09-22T23:47:20.891Z,4.55
2022-09-22T23:49:48.946Z,4.00
2022-09-22T23:52:16.974Z,3.70
2022-09-22T23:54:45.228Z,4.45
2022-09-22T23:57:14.911Z,4.25
2022-09-22T23:59:42.990Z,4.38
